createdAt,value
2022-08-22T00:09:07.546Z,1.7
2022-08-22T00:14:55.075Z,1.4
2022-08-22T00:20:42.655Z,1.9
2022-08-22T00:26:32.070Z,1.6
2022-08-22T00:32:20.270Z,1.6
2022-08-22T00:38:07.592Z,1.7
2022-08-22T00:44:07.998Z,1.8
2022-08-22T00:50:05.553Z,1.5
2022-08-22T00:56:00.986Z,2
2022-08-22T01:01:49.142Z,2.1
2022-08-22T01:07:42.093Z,1.7
2022-08-22T01:13:34.727Z,2
2022-08-22T01:19:30.583Z,1.7
2022-08-22T01:25:36.226Z,1.7
2022-08-22T01:31:35.110Z,1.7
2022-08-22T01:37:27.566Z,1.8
2022-08-22T01:43:18.203Z,1.6
2022-08-22T01:49:06.563Z,1.5
2022-08-22T01:54:54.943Z,1.8
2022-08-22T02:00:43.338Z,1.9
2022-08-22T02:06:32.648Z,1.8
2022-08-22T02:12:26.059Z,2
2022-08-22T02:18:21.054Z,1.8
2022-08-22T02:24:07.018Z,1.8
2022-08-22T02:29:55.288Z,1.9
2022-08-22T02:35:41.598Z,1.8
2022-08-22T02:41:32.773Z,1.7
2022-08-22T02:47:22.291Z,2.1
2022-08-22T02:53:11.750Z,1.6
2022-08-22T02:59:02.126Z,1.6
2022-08-22T03:04:53.643Z,2.2
2022-08-22T03:10:40.859Z,1.9
2022-08-22T03:16:28.251Z,2
2022-08-22T03:22:18.186Z,1.6
2022-08-22T03:28:04.551Z,1.7
2022-08-22T03:33:52.750Z,1.7
2022-08-22T03:39:52.254Z,1.8
2022-08-22T03:45:49.175Z,1.9
2022-08-22T03:51:41.863Z,1.9
2022-08-22T03:57:39.318Z,1.8
2022-08-22T04:03:40.939Z,1.8
2022-08-22T04:09:37.941Z,1.7
2022-08-22T04:15:32.121Z,1.8
2022-08-22T04:21:29.991Z,2
2022-08-22T04:27:20.461Z,1.8
2022-08-22T04:33:08.786Z,2.1
2022-08-22T04:38:55.261Z,2
2022-08-22T04:44:40.711Z,2.1
2022-08-22T04:50:27.603Z,2.1
2022-08-22T04:56:16.321Z,1.9
2022-08-22T05:02:03.090Z,2
2022-08-22T05:07:50.716Z,2.2
2022-08-22T05:13:35.775Z,2.1
2022-08-22T05:19:32.306Z,2.1
2022-08-22T05:25:19.390Z,2.1
2022-08-22T05:31:05.674Z,1.9
2022-08-22T05:36:51.210Z,2.2
2022-08-22T05:42:38.536Z,1.8
2022-08-22T05:48:23.691Z,2
2022-08-22T05:54:10.989Z,1.7
2022-08-22T05:59:59.185Z,2.1
2022-08-22T06:05:44.879Z,2
2022-08-22T06:11:35.806Z,2.1
2022-08-22T06:17:22.868Z,2.3
2022-08-22T06:23:07.412Z,2.2
2022-08-22T06:28:56.959Z,2
2022-08-22T06:34:42.455Z,2.2
2022-08-22T06:40:29.284Z,1.9
2022-08-22T06:46:16.210Z,1.9
2022-08-22T06:52:06.803Z,2.1
2022-08-22T06:57:51.502Z,2
2022-08-22T07:03:37.276Z,3.1
2022-08-22T07:09:24.579Z,3.2
2022-08-22T07:15:19.391Z,3.6
2022-08-22T07:21:04.208Z,3.2
2022-08-22T07:26:53.743Z,4
2022-08-22T07:32:42.250Z,3.5
2022-08-22T07:38:32.038Z,3.4
2022-08-22T07:44:18.902Z,3.2
2022-08-22T07:50:04.587Z,3
2022-08-22T07:55:51.694Z,2.8
2022-08-22T08:01:36.068Z,3.1
2022-08-22T08:07:22.463Z,2.9
2022-08-22T08:13:08.489Z,3
2022-08-22T08:18:55.498Z,2.9
2022-08-22T08:24:46.408Z,2.6
2022-08-22T08:30:34.873Z,2.5
2022-08-22T08:36:26.148Z,2.3
2022-08-22T08:42:19.315Z,2.3
2022-08-22T08:48:15.330Z,2.4
2022-08-22T08:54:16.664Z,2.3
2022-08-22T09:00:06.102Z,2.2
2022-08-22T09:06:03.215Z,2
2022-08-22T09:12:00.910Z,2.1
2022-08-22T09:17:56.628Z,2.1
2022-08-22T09:24:11.533Z,1.8
2022-08-22T09:30:06.357Z,1.6
2022-08-22T09:35:57.062Z,1.6
2022-08-22T09:41:55.762Z,1.6
2022-08-22T09:47:44.581Z,1.9
2022-08-22T09:53:35.868Z,1.6
2022-08-22T09:59:23.680Z,1.5
2022-08-22T10:05:35.024Z,1.5
2022-08-22T10:11:26.458Z,1.4
2022-08-22T10:17:24.086Z,1.4
2022-08-22T10:23:15.515Z,1.3
2022-08-22T10:29:10.540Z,1.5
2022-08-22T10:34:57.428Z,1.6
2022-08-22T10:40:48.581Z,1.3
2022-08-22T10:46:35.407Z,1.4
2022-08-22T10:52:22.890Z,1.3
2022-08-22T10:58:11.009Z,1.2
2022-08-22T11:04:01.694Z,1.4
2022-08-22T11:09:56.128Z,1.5
2022-08-22T11:16:00.416Z,1.2
2022-08-22T11:22:01.522Z,1.5
2022-08-22T11:27:55.037Z,1.2
2022-08-22T11:33:48.741Z,1.3
2022-08-22T11:39:39.839Z,1.3
2022-08-22T11:45:32.087Z,1.5
2022-08-22T11:51:27.739Z,1.3
2022-08-22T11:57:19.357Z,1.6
2022-08-22T12:03:10.198Z,1.4
2022-08-22T12:09:18.811Z,1.4
2022-08-22T12:15:11.578Z,1.4
2022-08-22T12:21:11.210Z,1.3
2022-08-22T12:27:08.206Z,1.2
2022-08-22T12:33:05.922Z,1.4
2022-08-22T12:39:01.613Z,1.3
2022-08-22T12:44:51.106Z,1.4
2022-08-22T12:50:41.076Z,1.4
2022-08-22T12:56:35.085Z,1.3
2022-08-22T13:02:26.268Z,1.2
2022-08-22T13:08:13.444Z,1.2
2022-08-22T13:14:01.810Z,1.4
2022-08-22T13:19:54.179Z,1.3
2022-08-22T13:25:44.202Z,1.4
2022-08-22T13:31:35.115Z,1.6
2022-08-22T13:37:26.946Z,1.7
2022-08-22T13:43:16.333Z,1.5
2022-08-22T13:49:03.087Z,1.4
2022-08-22T13:54:55.663Z,1.5
2022-08-22T14:00:58.990Z,1.5
2022-08-22T14:06:47.427Z,1.3
2022-08-22T14:12:49.967Z,1.7
2022-08-22T14:18:35.511Z,1.8
2022-08-22T14:24:28.906Z,1.9
2022-08-22T14:30:16.350Z,2
2022-08-22T14:36:05.010Z,2.3
2022-08-22T14:42:05.129Z,2
2022-08-22T14:48:14.349Z,2
2022-08-22T14:54:07.194Z,1.8
2022-08-22T14:59:56.019Z,1.5
2022-08-22T15:05:47.466Z,1.7
2022-08-22T15:11:35.922Z,1.8
2022-08-22T15:17:24.886Z,1.5
2022-08-22T15:23:17.093Z,1.6
2022-08-22T15:29:07.011Z,1.4
2022-08-22T15:34:54.185Z,1.6
2022-08-22T15:40:43.523Z,1.4
2022-08-22T15:46:32.194Z,1.8
2022-08-22T15:52:26.862Z,1.4
2022-08-22T15:58:15.889Z,1.6
2022-08-22T16:04:01.556Z,1.6
2022-08-22T16:09:48.329Z,1.3
2022-08-22T16:15:43.142Z,1.7
2022-08-22T16:21:37.199Z,1.3
2022-08-22T16:27:23.846Z,1.3
2022-08-22T16:33:19.136Z,1.6
2022-08-22T16:39:02.586Z,1.6
2022-08-22T16:44:47.551Z,1.5
2022-08-22T16:50:37.395Z,1.7
2022-08-22T16:56:28.081Z,1.5
2022-08-22T17:02:31.174Z,2.3
2022-08-22T17:08:22.451Z,2.7
2022-08-22T17:14:13.943Z,2.1
2022-08-22T17:20:06.379Z,1.9
2022-08-22T17:25:56.005Z,1.7
2022-08-22T17:31:45.196Z,2.6
2022-08-22T17:37:36.977Z,1.7
2022-08-22T17:43:25.572Z,1.7
2022-08-22T17:49:18.123Z,1.9
2022-08-22T17:55:04.689Z,1.6
2022-08-22T18:00:51.604Z,1.7
2022-08-22T18:06:37.967Z,1.7
2022-08-22T18:12:25.779Z,1.4
2022-08-22T18:18:16.229Z,1.8
2022-08-22T18:24:02.165Z,2.3
2022-08-22T18:29:51.142Z,1.8
2022-08-22T18:35:42.134Z,2
2022-08-22T18:41:33.345Z,1.7
2022-08-22T18:47:22.266Z,2
2022-08-22T18:53:10.429Z,1.8
2022-08-22T18:59:07.369Z,1.7
2022-08-22T19:05:07.823Z,1.8
2022-08-22T19:10:56.722Z,1.7
2022-08-22T19:16:51.135Z,2
2022-08-22T19:22:35.691Z,1.8
2022-08-22T19:28:32.871Z,1.7
2022-08-22T19:34:28.205Z,1.7
2022-08-22T19:40:13.903Z,1.5
2022-08-22T19:45:57.878Z,1.6
2022-08-22T19:51:41.174Z,1.7
2022-08-22T19:57:29.373Z,1.7
2022-08-22T20:03:17.247Z,1.8
2022-08-22T20:09:11.780Z,1.7
2022-08-22T20:14:55.430Z,1.7
2022-08-22T20:20:45.811Z,2
2022-08-22T20:26:29.389Z,1.6
2022-08-22T20:32:16.330Z,1.5
2022-08-22T20:38:08.498Z,1.6
2022-08-22T20:43:54.052Z,1.6
2022-08-22T20:49:42.925Z,1.5
2022-08-22T20:55:33.207Z,1.5
2022-08-22T21:01:17.513Z,1.7
2022-08-22T21:07:04.302Z,1.5
2022-08-22T21:12:53.722Z,1.5
2022-08-22T21:18:37.897Z,1.7
2022-08-22T21:24:22.645Z,1.7
2022-08-22T21:30:07.719Z,1.6
2022-08-22T21:35:55.838Z,1.6
2022-08-22T21:41:40.459Z,1.4
2022-08-22T21:47:32.618Z,1.6
2022-08-22T21:53:20.911Z,1.7
2022-08-22T21:59:17.399Z,1.6
2022-08-22T22:05:03.610Z,1.5
2022-08-22T22:10:50.455Z,1.5
2022-08-22T22:16:35.403Z,1.4
2022-08-22T22:22:18.709Z,1.6
2022-08-22T22:28:04.247Z,1.7
2022-08-22T22:33:48.588Z,1.7
2022-08-22T22:39:33.167Z,1.6
2022-08-22T22:45:16.524Z,1.6
2022-08-22T22:51:00.006Z,1.6
2022-08-22T22:56:48.393Z,1.6
2022-08-22T23:02:31.703Z,1.4
2022-08-22T23:08:15.123Z,1.5
2022-08-22T23:13:58.491Z,1.7
2022-08-22T23:19:43.187Z,1.8
2022-08-22T23:25:31.582Z,1.6
2022-08-22T23:31:16.478Z,1.8
2022-08-22T23:37:00.499Z,1.6
2022-08-22T23:42:43.982Z,1.8
2022-08-22T23:48:28.603Z,1.7
2022-08-22T23:54:11.938Z,1.6
